sensor_id;sensor_type;location;lat;lon;timestamp;pressure;altitude;pressure_sealevel;temperature
19644;BMP180;9970;-36.854;174.870;2023-03-30T00:01:53;101270.00;;;19.00
19644;BMP180;9970;-36.854;174.870;2023-03-30T00:04:26;101275.00;;;19.10
19644;BMP180;9970;-36.854;174.870;2023-03-30T00:06:59;101270.00;;;19.10
19644;BMP180;9970;-36.854;174.870;2023-03-30T00:09:36;101275.00;;;19.10
19644;BMP180;9970;-36.854;174.870;2023-03-30T00:12:12;101262.00;;;19.10
19644;BMP180;9970;-36.854;174.870;2023-03-30T00:14:46;101252.00;;;19.20
19644;BMP180;9970;-36.854;174.870;2023-03-30T00:17:20;101253.00;;;19.20
19644;BMP180;9970;-36.854;174.870;2023-03-30T00:19:53;101252.00;;;19.30
19644;BMP180;9970;-36.854;174.870;2023-03-30T00:22:26;101253.00;;;19.30
19644;BMP180;9970;-36.854;174.870;2023-03-30T00:24:59;101246.00;;;19.30
19644;BMP180;9970;-36.854;174.870;2023-03-30T00:27:32;101243.00;;;19.30
19644;BMP180;9970;-36.854;174.870;2023-03-30T00:30:07;101244.00;;;19.30
19644;BMP180;9970;-36.854;174.870;2023-03-30T00:32:40;101240.00;;;19.30
19644;BMP180;9970;-36.854;174.870;2023-03-30T00:35:13;101231.00;;;19.30
19644;BMP180;9970;-36.854;174.870;2023-03-30T00:37:46;101238.00;;;19.40
19644;BMP180;9970;-36.854;174.870;2023-03-30T00:40:20;101231.00;;;19.40
19644;BMP180;9970;-36.854;174.870;2023-03-30T00:42:57;101223.00;;;19.40
19644;BMP180;9970;-36.854;174.870;2023-03-30T00:45:34;101232.00;;;19.40
19644;BMP180;9970;-36.854;174.870;2023-03-30T00:48:21;101211.00;;;19.40
19644;BMP180;9970;-36.854;174.870;2023-03-30T00:50:58;101212.00;;;19.40
19644;BMP180;9970;-36.854;174.870;2023-03-30T00:53:33;101226.00;;;19.40
19644;BMP180;9970;-36.854;174.870;2023-03-30T00:56:08;101227.00;;;19.40
19644;BMP180;9970;-36.854;174.870;2023-03-30T00:58:42;101215.00;;;19.50
19644;BMP180;9970;-36.854;174.870;2023-03-30T01:01:16;101211.00;;;19.50
19644;BMP180;9970;-36.854;174.870;2023-03-30T01:03:56;101221.00;;;19.60
19644;BMP180;9970;-36.854;174.870;2023-03-30T01:06:29;101215.00;;;19.60
19644;BMP180;9970;-36.854;174.870;2023-03-30T01:09:04;101208.00;;;19.60
19644;BMP180;9970;-36.854;174.870;2023-03-30T01:11:37;101210.00;;;19.70
19644;BMP180;9970;-36.854;174.870;2023-03-30T01:14:11;101216.00;;;19.70
19644;BMP180;9970;-36.854;174.870;2023-03-30T01:22:48;101192.00;;;19.80
19644;BMP180;9970;-36.854;174.870;2023-03-30T01:28:18;101190.00;;;19.70
19644;BMP180;9970;-36.854;174.870;2023-03-30T01:31:13;101183.00;;;19.70
19644;BMP180;9970;-36.854;174.870;2023-03-30T01:42:34;101171.00;;;19.70
19644;BMP180;9970;-36.854;174.870;2023-03-30T01:45:08;101169.00;;;19.70
19644;BMP180;9970;-36.854;174.870;2023-03-30T01:47:55;101156.00;;;19.70
19644;BMP180;9970;-36.854;174.870;2023-03-30T01:50:47;101156.00;;;19.70
19644;BMP180;9970;-36.854;174.870;2023-03-30T01:53:46;101151.00;;;19.60
19644;BMP180;9970;-36.854;174.870;2023-03-30T01:56:40;101142.00;;;19.60
19644;BMP180;9970;-36.854;174.870;2023-03-30T01:59:15;101164.00;;;19.60
19644;BMP180;9970;-36.854;174.870;2023-03-30T02:01:47;101145.00;;;19.50
19644;BMP180;9970;-36.854;174.870;2023-03-30T02:04:23;101159.00;;;19.50
19644;BMP180;9970;-36.854;174.870;2023-03-30T02:07:01;101141.00;;;19.50
19644;BMP180;9970;-36.854;174.870;2023-03-30T02:09:35;101136.00;;;19.50
19644;BMP180;9970;-36.854;174.870;2023-03-30T02:12:10;101150.00;;;19.50
19644;BMP180;9970;-36.854;174.870;2023-03-30T02:14:44;101141.00;;;19.50
19644;BMP180;9970;-36.854;174.870;2023-03-30T02:17:22;101138.00;;;19.50
19644;BMP180;9970;-36.854;174.870;2023-03-30T02:19:55;101124.00;;;19.60
19644;BMP180;9970;-36.854;174.870;2023-03-30T02:22:28;101133.00;;;19.60
19644;BMP180;9970;-36.854;174.870;2023-03-30T02:25:02;101121.00;;;19.60
19644;BMP180;9970;-36.854;174.870;2023-03-30T02:27:35;101124.00;;;19.60
19644;BMP180;9970;-36.854;174.870;2023-03-30T02:30:09;101120.00;;;19.60
19644;BMP180;9970;-36.854;174.870;2023-03-30T02:32:46;101122.00;;;19.60
19644;BMP180;9970;-36.854;174.870;2023-03-30T02:38:34;101124.00;;;19.50
19644;BMP180;9970;-36.854;174.870;2023-03-30T02:43:46;101106.00;;;19.50
19644;BMP180;9970;-36.854;174.870;2023-03-30T02:46:32;101101.00;;;19.40
19644;BMP180;9970;-36.854;174.870;2023-03-30T02:52:16;101106.00;;;19.40
19644;BMP180;9970;-36.854;174.870;2023-03-30T02:54:56;101110.00;;;19.40
19644;BMP180;9970;-36.854;174.870;2023-03-30T02:57:43;101100.00;;;19.40
19644;BMP180;9970;-36.854;174.870;2023-03-30T03:03:01;101104.00;;;19.30
19644;BMP180;9970;-36.854;174.870;2023-03-30T03:05:33;101096.00;;;19.30
19644;BMP180;9970;-36.854;174.870;2023-03-30T03:08:07;101102.00;;;19.30
19644;BMP180;9970;-36.854;174.870;2023-03-30T03:10:40;101113.00;;;19.30
19644;BMP180;9970;-36.854;174.870;2023-03-30T03:13:13;101115.00;;;19.30
19644;BMP180;9970;-36.854;174.870;2023-03-30T03:15:47;101118.00;;;19.30
19644;BMP180;9970;-36.854;174.870;2023-03-30T03:18:19;101096.00;;;19.30
19644;BMP180;9970;-36.854;174.870;2023-03-30T03:20:52;101095.00;;;19.30
19644;BMP180;9970;-36.854;174.870;2023-03-30T03:23:26;101106.00;;;19.20
19644;BMP180;9970;-36.854;174.870;2023-03-30T03:25:58;101093.00;;;19.20
19644;BMP180;9970;-36.854;174.870;2023-03-30T03:28:32;101100.00;;;19.20
19644;BMP180;9970;-36.854;174.870;2023-03-30T03:31:04;101094.00;;;19.20
19644;BMP180;9970;-36.854;174.870;2023-03-30T03:33:38;101102.00;;;19.20
19644;BMP180;9970;-36.854;174.870;2023-03-30T03:36:10;101112.00;;;19.20
19644;BMP180;9970;-36.854;174.870;2023-03-30T03:38:44;101101.00;;;19.10
19644;BMP180;9970;-36.854;174.870;2023-03-30T03:41:16;101113.00;;;19.10
19644;BMP180;9970;-36.854;174.870;2023-03-30T03:43:49;101105.00;;;19.10
19644;BMP180;9970;-36.854;174.870;2023-03-30T03:46:22;101105.00;;;19.10
19644;BMP180;9970;-36.854;174.870;2023-03-30T03:48:56;101111.00;;;19.00
19644;BMP180;9970;-36.854;174.870;2023-03-30T03:51:28;101094.00;;;19.00
19644;BMP180;9970;-36.854;174.870;2023-03-30T03:54:02;101112.00;;;19.00
19644;BMP180;9970;-36.854;174.870;2023-03-30T03:56:37;101107.00;;;18.90
19644;BMP180;9970;-36.854;174.870;2023-03-30T03:59:10;101094.00;;;18.90
19644;BMP180;9970;-36.854;174.870;2023-03-30T04:01:43;101100.00;;;18.90
19644;BMP180;9970;-36.854;174.870;2023-03-30T04:04:16;101101.00;;;18.90
19644;BMP180;9970;-36.854;174.870;2023-03-30T04:06:50;101085.00;;;18.80
19644;BMP180;9970;-36.854;174.870;2023-03-30T04:09:23;101087.00;;;18.80
19644;BMP180;9970;-36.854;174.870;2023-03-30T04:11:56;101087.00;;;18.80
19644;BMP180;9970;-36.854;174.870;2023-03-30T04:14:29;101085.00;;;18.70
19644;BMP180;9970;-36.854;174.870;2023-03-30T04:17:03;101087.00;;;18.70
19644;BMP180;9970;-36.854;174.870;2023-03-30T04:19:36;101095.00;;;18.70
19644;BMP180;9970;-36.854;174.870;2023-03-30T04:22:09;101099.00;;;18.60
19644;BMP180;9970;-36.854;174.870;2023-03-30T04:24:43;101101.00;;;18.60
19644;BMP180;9970;-36.854;174.870;2023-03-30T04:27:16;101093.00;;;18.60
19644;BMP180;9970;-36.854;174.870;2023-03-30T04:29:50;101093.00;;;18.60
19644;BMP180;9970;-36.854;174.870;2023-03-30T04:32:23;101100.00;;;18.50
19644;BMP180;9970;-36.854;174.870;2023-03-30T04:34:56;101090.00;;;18.50
19644;BMP180;9970;-36.854;174.870;2023-03-30T04:37:29;101100.00;;;18.50
19644;BMP180;9970;-36.854;174.870;2023-03-30T04:40:02;101106.00;;;18.50
19644;BMP180;9970;-36.854;174.870;2023-03-30T04:42:39;101101.00;;;18.40
19644;BMP180;9970;-36.854;174.870;2023-03-30T04:45:19;101105.00;;;18.40
19644;BMP180;9970;-36.854;174.870;2023-03-30T04:47:52;101107.00;;;18.40
19644;BMP180;9970;-36.854;174.870;2023-03-30T04:50:25;101111.00;;;18.30
19644;BMP180;9970;-36.854;174.870;2023-03-30T04:52:58;101110.00;;;18.30
19644;BMP180;9970;-36.854;174.870;2023-03-30T04:55:31;101096.00;;;18.30
19644;BMP180;9970;-36.854;174.870;2023-03-30T04:58:04;101106.00;;;18.20
19644;BMP180;9970;-36.854;174.870;2023-03-30T05:00:37;101110.00;;;18.20
19644;BMP180;9970;-36.854;174.870;2023-03-30T05:03:10;101107.00;;;18.20
19644;BMP180;9970;-36.854;174.870;2023-03-30T05:05:43;101118.00;;;18.20
19644;BMP180;9970;-36.854;174.870;2023-03-30T05:08:16;101120.00;;;18.10
19644;BMP180;9970;-36.854;174.870;2023-03-30T05:10:49;101121.00;;;18.10
19644;BMP180;9970;-36.854;174.870;2023-03-30T05:13:22;101119.00;;;18.10
19644;BMP180;9970;-36.854;174.870;2023-03-30T05:15:56;101119.00;;;18.10
19644;BMP180;9970;-36.854;174.870;2023-03-30T05:18:29;101073.00;;;18.10
19644;BMP180;9970;-36.854;174.870;2023-03-30T05:21:01;101120.00;;;18.10
19644;BMP180;9970;-36.854;174.870;2023-03-30T05:23:35;101129.00;;;18.10
19644;BMP180;9970;-36.854;174.870;2023-03-30T05:26:09;101124.00;;;18.10
19644;BMP180;9970;-36.854;174.870;2023-03-30T05:28:42;101126.00;;;18.10
19644;BMP180;9970;-36.854;174.870;2023-03-30T05:31:15;101133.00;;;18.00
19644;BMP180;9970;-36.854;174.870;2023-03-30T05:33:48;101128.00;;;18.00
19644;BMP180;9970;-36.854;174.870;2023-03-30T05:36:22;101124.00;;;18.00
19644;BMP180;9970;-36.854;174.870;2023-03-30T05:38:55;101128.00;;;18.00
19644;BMP180;9970;-36.854;174.870;2023-03-30T05:41:28;101145.00;;;17.90
19644;BMP180;9970;-36.854;174.870;2023-03-30T05:44:01;101130.00;;;17.90
19644;BMP180;9970;-36.854;174.870;2023-03-30T05:46:34;101135.00;;;17.90
19644;BMP180;9970;-36.854;174.870;2023-03-30T05:49:08;101129.00;;;17.90
19644;BMP180;9970;-36.854;174.870;2023-03-30T05:51:41;101131.00;;;17.80
19644;BMP180;9970;-36.854;174.870;2023-03-30T05:54:14;101136.00;;;17.80
19644;BMP180;9970;-36.854;174.870;2023-03-30T05:56:47;101137.00;;;17.80
19644;BMP180;9970;-36.854;174.870;2023-03-30T05:59:20;101142.00;;;17.80
19644;BMP180;9970;-36.854;174.870;2023-03-30T06:01:53;101142.00;;;17.80
19644;BMP180;9970;-36.854;174.870;2023-03-30T06:04:27;101140.00;;;17.70
19644;BMP180;9970;-36.854;174.870;2023-03-30T06:07:01;101133.00;;;17.70
19644;BMP180;9970;-36.854;174.870;2023-03-30T06:09:34;101136.00;;;17.70
19644;BMP180;9970;-36.854;174.870;2023-03-30T06:12:07;101136.00;;;17.60
19644;BMP180;9970;-36.854;174.870;2023-03-30T06:14:41;101142.00;;;17.60
19644;BMP180;9970;-36.854;174.870;2023-03-30T06:17:14;101135.00;;;17.60
19644;BMP180;9970;-36.854;174.870;2023-03-30T06:19:47;101123.00;;;17.60
19644;BMP180;9970;-36.854;174.870;2023-03-30T06:22:20;101141.00;;;17.60
19644;BMP180;9970;-36.854;174.870;2023-03-30T06:24:53;101134.00;;;17.60
19644;BMP180;9970;-36.854;174.870;2023-03-30T06:27:26;101138.00;;;17.60
19644;BMP180;9970;-36.854;174.870;2023-03-30T06:30:05;101139.00;;;17.50
19644;BMP180;9970;-36.854;174.870;2023-03-30T06:32:44;101137.00;;;17.50
19644;BMP180;9970;-36.854;174.870;2023-03-30T06:35:17;101129.00;;;17.40
19644;BMP180;9970;-36.854;174.870;2023-03-30T06:37:51;101139.00;;;17.40
19644;BMP180;9970;-36.854;174.870;2023-03-30T06:40:31;101146.00;;;17.40
19644;BMP180;9970;-36.854;174.870;2023-03-30T06:43:06;101139.00;;;17.40
19644;BMP180;9970;-36.854;174.870;2023-03-30T06:45:47;101139.00;;;17.40
19644;BMP180;9970;-36.854;174.870;2023-03-30T06:48:20;101144.00;;;17.30
19644;BMP180;9970;-36.854;174.870;2023-03-30T06:50:57;101140.00;;;17.30
19644;BMP180;9970;-36.854;174.870;2023-03-30T06:53:33;101147.00;;;17.30
19644;BMP180;9970;-36.854;174.870;2023-03-30T06:56:17;101154.00;;;17.30
19644;BMP180;9970;-36.854;174.870;2023-03-30T06:59:05;101147.00;;;17.20
19644;BMP180;9970;-36.854;174.870;2023-03-30T07:01:37;101146.00;;;17.20
19644;BMP180;9970;-36.854;174.870;2023-03-30T07:04:29;101144.00;;;17.20
19644;BMP180;9970;-36.854;174.870;2023-03-30T07:07:17;101142.00;;;17.10
19644;BMP180;9970;-36.854;174.870;2023-03-30T07:09:58;101143.00;;;17.10
19644;BMP180;9970;-36.854;174.870;2023-03-30T07:13:02;101148.00;;;17.00
19644;BMP180;9970;-36.854;174.870;2023-03-30T07:15:26;101148.00;;;17.00
19644;BMP180;9970;-36.854;174.870;2023-03-30T07:18:12;101153.00;;;17.00
19644;BMP180;9970;-36.854;174.870;2023-03-30T07:20:53;101154.00;;;16.90
19644;BMP180;9970;-36.854;174.870;2023-03-30T07:23:40;101159.00;;;16.90
19644;BMP180;9970;-36.854;174.870;2023-03-30T07:26:36;101166.00;;;16.80
19644;BMP180;9970;-36.854;174.870;2023-03-30T07:29:28;101171.00;;;16.80
19644;BMP180;9970;-36.854;174.870;2023-03-30T07:32:46;101174.00;;;16.80
19644;BMP180;9970;-36.854;174.870;2023-03-30T07:35:13;101171.00;;;16.70
19644;BMP180;9970;-36.854;174.870;2023-03-30T07:38:05;101173.00;;;16.70
19644;BMP180;9970;-36.854;174.870;2023-03-30T07:41:48;101174.00;;;16.70
19644;BMP180;9970;-36.854;174.870;2023-03-30T07:53:16;101179.00;;;16.40
19644;BMP180;9970;-36.854;174.870;2023-03-30T08:02:31;101180.00;;;16.30
19644;BMP180;9970;-36.854;174.870;2023-03-30T08:08:33;101189.00;;;16.30
19644;BMP180;9970;-36.854;174.870;2023-03-30T08:14:48;101193.00;;;16.20
19644;BMP180;9970;-36.854;174.870;2023-03-30T08:21:49;101199.00;;;16.10
19644;BMP180;9970;-36.854;174.870;2023-03-30T08:33:32;101224.00;;;16.10
19644;BMP180;9970;-36.854;174.870;2023-03-30T08:40:06;101229.00;;;16.10
19644;BMP180;9970;-36.854;174.870;2023-03-30T08:52:18;101216.00;;;16.00
19644;BMP180;9970;-36.854;174.870;2023-03-30T09:08:39;101214.00;;;15.70
19644;BMP180;9970;-36.854;174.870;2023-03-30T09:14:59;101207.00;;;15.70
19644;BMP180;9970;-36.854;174.870;2023-03-30T09:21:08;101221.00;;;15.70
19644;BMP180;9970;-36.854;174.870;2023-03-30T09:24:13;101217.00;;;15.70
19644;BMP180;9970;-36.854;174.870;2023-03-30T09:31:19;101215.00;;;15.60
19644;BMP180;9970;-36.854;174.870;2023-03-30T09:37:33;101209.00;;;15.50
19644;BMP180;9970;-36.854;174.870;2023-03-30T09:44:07;101226.00;;;15.50
19644;BMP180;9970;-36.854;174.870;2023-03-30T09:53:39;101221.00;;;15.50
19644;BMP180;9970;-36.854;174.870;2023-03-30T10:02:55;101211.00;;;15.40
19644;BMP180;9970;-36.854;174.870;2023-03-30T10:22:00;101209.00;;;15.20
19644;BMP180;9970;-36.854;174.870;2023-03-30T10:28:49;101212.00;;;15.10
19644;BMP180;9970;-36.854;174.870;2023-03-30T10:31:43;101223.00;;;15.10
19644;BMP180;9970;-36.854;174.870;2023-03-30T10:44:45;101220.00;;;15.10
19644;BMP180;9970;-36.854;174.870;2023-03-30T10:47:58;101227.00;;;15.10
19644;BMP180;9970;-36.854;174.870;2023-03-30T10:51:21;101223.00;;;15.10
19644;BMP180;9970;-36.854;174.870;2023-03-30T11:17:13;101208.00;;;15.00
19644;BMP180;9970;-36.854;174.870;2023-03-30T11:43:35;101186.00;;;14.70
19644;BMP180;9970;-36.854;174.870;2023-03-30T12:06:37;101226.00;;;14.60
19644;BMP180;9970;-36.854;174.870;2023-03-30T12:12:51;101229.00;;;14.60
19644;BMP180;9970;-36.854;174.870;2023-03-30T12:19:23;101239.00;;;14.50
19644;BMP180;9970;-36.854;174.870;2023-03-30T12:22:21;101241.00;;;14.50
19644;BMP180;9970;-36.854;174.870;2023-03-30T12:28:38;101242.00;;;14.50
19644;BMP180;9970;-36.854;174.870;2023-03-30T12:37:32;101257.00;;;14.60
19644;BMP180;9970;-36.854;174.870;2023-03-30T12:40:51;101263.00;;;14.60
19644;BMP180;9970;-36.854;174.870;2023-03-30T12:43:40;101254.00;;;14.60
19644;BMP180;9970;-36.854;174.870;2023-03-30T12:49:34;101260.00;;;14.60
19644;BMP180;9970;-36.854;174.870;2023-03-30T12:55:45;101260.00;;;14.60
19644;BMP180;9970;-36.854;174.870;2023-03-30T13:02:05;101261.00;;;14.50
19644;BMP180;9970;-36.854;174.870;2023-03-30T13:08:36;101257.00;;;14.50
19644;BMP180;9970;-36.854;174.870;2023-03-30T13:15:01;101249.00;;;14.50
19644;BMP180;9970;-36.854;174.870;2023-03-30T13:51:40;101261.00;;;14.30
19644;BMP180;9970;-36.854;174.870;2023-03-30T14:04:20;101244.00;;;14.30
19644;BMP180;9970;-36.854;174.870;2023-03-30T14:10:15;101244.00;;;14.30
19644;BMP180;9970;-36.854;174.870;2023-03-30T14:13:15;101244.00;;;14.30
19644;BMP180;9970;-36.854;174.870;2023-03-30T14:18:51;101238.00;;;14.30
19644;BMP180;9970;-36.854;174.870;2023-03-30T14:21:20;101239.00;;;14.30
19644;BMP180;9970;-36.854;174.870;2023-03-30T14:24:01;101238.00;;;14.30
19644;BMP180;9970;-36.854;174.870;2023-03-30T14:29:28;101234.00;;;14.30
19644;BMP180;9970;-36.854;174.870;2023-03-30T14:32:26;101233.00;;;14.30
19644;BMP180;9970;-36.854;174.870;2023-03-30T14:35:07;101215.00;;;14.30
19644;BMP180;9970;-36.854;174.870;2023-03-30T14:38:32;101217.00;;;14.30
19644;BMP180;9970;-36.854;174.870;2023-03-30T14:44:03;101212.00;;;14.30
19644;BMP180;9970;-36.854;174.870;2023-03-30T14:49:57;101216.00;;;14.20
19644;BMP180;9970;-36.854;174.870;2023-03-30T14:52:44;101210.00;;;14.20
19644;BMP180;9970;-36.854;174.870;2023-03-30T14:55:50;101208.00;;;14.20
19644;BMP180;9970;-36.854;174.870;2023-03-30T14:58:55;101202.00;;;14.10
19644;BMP180;9970;-36.854;174.870;2023-03-30T15:04:51;101202.00;;;14.10
19644;BMP180;9970;-36.854;174.870;2023-03-30T15:08:10;101210.00;;;14.10
19644;BMP180;9970;-36.854;174.870;2023-03-30T15:13:47;101202.00;;;14.10
19644;BMP180;9970;-36.854;174.870;2023-03-30T15:16:34;101199.00;;;14.00
19644;BMP180;9970;-36.854;174.870;2023-03-30T15:19:40;101206.00;;;14.00
19644;BMP180;9970;-36.854;174.870;2023-03-30T15:22:31;101194.00;;;14.00
19644;BMP180;9970;-36.854;174.870;2023-03-30T15:25:37;101198.00;;;14.00
19644;BMP180;9970;-36.854;174.870;2023-03-30T15:31:25;101198.00;;;14.00
19644;BMP180;9970;-36.854;174.870;2023-03-30T15:34:16;101197.00;;;14.00
19644;BMP180;9970;-36.854;174.870;2023-03-30T15:37:19;101188.00;;;13.90
19644;BMP180;9970;-36.854;174.870;2023-03-30T15:43:00;101186.00;;;13.90
19644;BMP180;9970;-36.854;174.870;2023-03-30T15:48:46;101192.00;;;13.90
19644;BMP180;9970;-36.854;174.870;2023-03-30T15:54:14;101185.00;;;13.80
19644;BMP180;9970;-36.854;174.870;2023-03-30T15:56:58;101190.00;;;13.80
19644;BMP180;9970;-36.854;174.870;2023-03-30T15:59:34;101178.00;;;13.80
19644;BMP180;9970;-36.854;174.870;2023-03-30T16:02:21;101181.00;;;13.80
19644;BMP180;9970;-36.854;174.870;2023-03-30T16:04:59;101188.00;;;13.80
19644;BMP180;9970;-36.854;174.870;2023-03-30T16:07:32;101187.00;;;13.80
19644;BMP180;9970;-36.854;174.870;2023-03-30T16:10:10;101193.00;;;13.80
19644;BMP180;9970;-36.854;174.870;2023-03-30T16:12:47;101190.00;;;13.70
19644;BMP180;9970;-36.854;174.870;2023-03-30T16:15:21;101189.00;;;13.70
19644;BMP180;9970;-36.854;174.870;2023-03-30T16:17:54;101186.00;;;13.80
19644;BMP180;9970;-36.854;174.870;2023-03-30T16:20:29;101187.00;;;13.80
19644;BMP180;9970;-36.854;174.870;2023-03-30T16:23:02;101187.00;;;13.80
19644;BMP180;9970;-36.854;174.870;2023-03-30T16:25:38;101181.00;;;13.80
19644;BMP180;9970;-36.854;174.870;2023-03-30T16:28:14;101183.00;;;13.80
19644;BMP180;9970;-36.854;174.870;2023-03-30T16:30:48;101195.00;;;13.80
19644;BMP180;9970;-36.854;174.870;2023-03-30T16:33:21;101185.00;;;13.70
19644;BMP180;9970;-36.854;174.870;2023-03-30T16:35:54;101191.00;;;13.70
19644;BMP180;9970;-36.854;174.870;2023-03-30T16:38:27;101187.00;;;13.70
19644;BMP180;9970;-36.854;174.870;2023-03-30T16:41:01;101202.00;;;13.70
19644;BMP180;9970;-36.854;174.870;2023-03-30T16:43:34;101207.00;;;13.70
19644;BMP180;9970;-36.854;174.870;2023-03-30T16:46:11;101195.00;;;13.70
19644;BMP180;9970;-36.854;174.870;2023-03-30T16:48:44;101197.00;;;13.70
19644;BMP180;9970;-36.854;174.870;2023-03-30T16:51:18;101197.00;;;13.70
19644;BMP180;9970;-36.854;174.870;2023-03-30T16:53:51;101189.00;;;13.70
19644;BMP180;9970;-36.854;174.870;2023-03-30T16:56:24;101194.00;;;13.70
19644;BMP180;9970;-36.854;174.870;2023-03-30T16:58:57;101200.00;;;13.70
19644;BMP180;9970;-36.854;174.870;2023-03-30T17:01:30;101200.00;;;13.70
19644;BMP180;9970;-36.854;174.870;2023-03-30T17:04:04;101196.00;;;13.70
19644;BMP180;9970;-36.854;174.870;2023-03-30T17:06:38;101200.00;;;13.70
19644;BMP180;9970;-36.854;174.870;2023-03-30T17:09:15;101223.00;;;13.60
19644;BMP180;9970;-36.854;174.870;2023-03-30T17:11:49;101218.00;;;13.60
19644;BMP180;9970;-36.854;174.870;2023-03-30T17:14:26;101218.00;;;13.60
19644;BMP180;9970;-36.854;174.870;2023-03-30T17:17:00;101222.00;;;13.60
19644;BMP180;9970;-36.854;174.870;2023-03-30T17:19:33;101219.00;;;13.60
19644;BMP180;9970;-36.854;174.870;2023-03-30T17:22:06;101217.00;;;13.60
19644;BMP180;9970;-36.854;174.870;2023-03-30T17:24:39;101208.00;;;13.60
19644;BMP180;9970;-36.854;174.870;2023-03-30T17:27:13;101202.00;;;13.50
19644;BMP180;9970;-36.854;174.870;2023-03-30T17:29:46;101206.00;;;13.50
19644;BMP180;9970;-36.854;174.870;2023-03-30T17:32:19;101219.00;;;13.50
19644;BMP180;9970;-36.854;174.870;2023-03-30T17:34:53;101213.00;;;13.50
19644;BMP180;9970;-36.854;174.870;2023-03-30T17:37:26;101213.00;;;13.50
19644;BMP180;9970;-36.854;174.870;2023-03-30T17:39:59;101211.00;;;13.50
19644;BMP180;9970;-36.854;174.870;2023-03-30T17:42:33;101202.00;;;13.60
19644;BMP180;9970;-36.854;174.870;2023-03-30T17:45:07;101196.00;;;13.60
19644;BMP180;9970;-36.854;174.870;2023-03-30T17:47:40;101200.00;;;13.60
19644;BMP180;9970;-36.854;174.870;2023-03-30T17:50:28;101201.00;;;13.60
19644;BMP180;9970;-36.854;174.870;2023-03-30T17:52:53;101199.00;;;13.60
19644;BMP180;9970;-36.854;174.870;2023-03-30T17:55:27;101206.00;;;13.60
19644;BMP180;9970;-36.854;174.870;2023-03-30T17:58:04;101198.00;;;13.60
19644;BMP180;9970;-36.854;174.870;2023-03-30T18:00:37;101201.00;;;13.60
19644;BMP180;9970;-36.854;174.870;2023-03-30T18:03:11;101203.00;;;13.60
19644;BMP180;9970;-36.854;174.870;2023-03-30T18:05:44;101209.00;;;13.60
19644;BMP180;9970;-36.854;174.870;2023-03-30T18:08:18;101212.00;;;13.60
19644;BMP180;9970;-36.854;174.870;2023-03-30T18:10:53;101212.00;;;13.60
19644;BMP180;9970;-36.854;174.870;2023-03-30T18:13:29;101218.00;;;13.60
19644;BMP180;9970;-36.854;174.870;2023-03-30T18:16:04;101221.00;;;13.60
19644;BMP180;9970;-36.854;174.870;2023-03-30T18:18:37;101225.00;;;13.60
19644;BMP180;9970;-36.854;174.870;2023-03-30T18:21:14;101223.00;;;13.60
19644;BMP180;9970;-36.854;174.870;2023-03-30T18:23:51;101225.00;;;13.60
19644;BMP180;9970;-36.854;174.870;2023-03-30T18:26:25;101219.00;;;13.60
19644;BMP180;9970;-36.854;174.870;2023-03-30T18:29:07;101211.00;;;13.70
19644;BMP180;9970;-36.854;174.870;2023-03-30T18:31:36;101219.00;;;13.70
19644;BMP180;9970;-36.854;174.870;2023-03-30T18:34:09;101212.00;;;13.70
19644;BMP180;9970;-36.854;174.870;2023-03-30T18:36:43;101214.00;;;13.70
19644;BMP180;9970;-36.854;174.870;2023-03-30T18:39:17;101212.00;;;13.70
19644;BMP180;9970;-36.854;174.870;2023-03-30T18:41:51;101211.00;;;13.70
19644;BMP180;9970;-36.854;174.870;2023-03-30T18:47:44;101211.00;;;13.70
19644;BMP180;9970;-36.854;174.870;2023-03-30T18:50:42;101213.00;;;13.70
19644;BMP180;9970;-36.854;174.870;2023-03-30T18:53:52;101228.00;;;13.70
19644;BMP180;9970;-36.854;174.870;2023-03-30T18:56:45;101219.00;;;13.70
19644;BMP180;9970;-36.854;174.870;2023-03-30T18:59:32;101218.00;;;13.70
19644;BMP180;9970;-36.854;174.870;2023-03-30T19:02:26;101217.00;;;13.70
19644;BMP180;9970;-36.854;174.870;2023-03-30T19:08:15;101236.00;;;13.70
19644;BMP180;9970;-36.854;174.870;2023-03-30T19:10:54;101240.00;;;13.80
19644;BMP180;9970;-36.854;174.870;2023-03-30T19:13:37;101251.00;;;13.80
19644;BMP180;9970;-36.854;174.870;2023-03-30T19:16:22;101243.00;;;13.80
19644;BMP180;9970;-36.854;174.870;2023-03-30T19:19:00;101256.00;;;13.90
19644;BMP180;9970;-36.854;174.870;2023-03-30T19:21:42;101253.00;;;14.00
19644;BMP180;9970;-36.854;174.870;2023-03-30T19:24:16;101249.00;;;14.00
19644;BMP180;9970;-36.854;174.870;2023-03-30T19:26:52;101260.00;;;14.10
19644;BMP180;9970;-36.854;174.870;2023-03-30T19:29:33;101270.00;;;14.20
19644;BMP180;9970;-36.854;174.870;2023-03-30T19:32:08;101264.00;;;14.20
19644;BMP180;9970;-36.854;174.870;2023-03-30T19:34:42;101277.00;;;14.30
19644;BMP180;9970;-36.854;174.870;2023-03-30T19:37:15;101276.00;;;14.40
19644;BMP180;9970;-36.854;174.870;2023-03-30T19:39:53;101283.00;;;14.50
19644;BMP180;9970;-36.854;174.870;2023-03-30T19:42:22;101283.00;;;14.60
19644;BMP180;9970;-36.854;174.870;2023-03-30T19:44:56;101289.00;;;14.60
19644;BMP180;9970;-36.854;174.870;2023-03-30T19:47:30;101293.00;;;14.70
19644;BMP180;9970;-36.854;174.870;2023-03-30T19:50:07;101282.00;;;14.70
19644;BMP180;9970;-36.854;174.870;2023-03-30T19:52:41;101293.00;;;14.80
19644;BMP180;9970;-36.854;174.870;2023-03-30T19:55:14;101293.00;;;14.80
19644;BMP180;9970;-36.854;174.870;2023-03-30T19:57:47;101295.00;;;14.80
19644;BMP180;9970;-36.854;174.870;2023-03-30T20:00:21;101302.00;;;14.90
19644;BMP180;9970;-36.854;174.870;2023-03-30T20:02:54;101305.00;;;14.90
19644;BMP180;9970;-36.854;174.870;2023-03-30T20:05:28;101297.00;;;15.00
19644;BMP180;9970;-36.854;174.870;2023-03-30T20:08:01;101301.00;;;15.00
19644;BMP180;9970;-36.854;174.870;2023-03-30T20:10:35;101299.00;;;15.10
19644;BMP180;9970;-36.854;174.870;2023-03-30T20:13:10;101309.00;;;15.10
19644;BMP180;9970;-36.854;174.870;2023-03-30T20:15:44;101312.00;;;15.20